createdAt,value
2023-03-25T08:24:34.315Z,9.49
2023-03-25T08:27:15.477Z,9.55
2023-03-25T08:55:12.620Z,9.69
2023-03-25T08:57:40.080Z,9.88
2023-03-25T09:00:16.945Z,9.99
2023-03-25T09:02:44.909Z,10.14
2023-03-25T09:08:24.937Z,10.35
2023-03-25T09:10:54.621Z,10.42
2023-03-25T09:13:22.021Z,10.42
2023-03-25T09:15:49.606Z,10.46
2023-03-25T09:18:17.209Z,10.15
2023-03-25T09:25:35.574Z,10.34
2023-03-25T09:28:03.890Z,10.28
2023-03-25T09:30:31.335Z,10.37
2023-03-25T09:32:58.899Z,10.34
2023-03-25T09:35:26.392Z,10.25
2023-03-25T09:39:10.131Z,9.91
2023-03-25T09:42:45.755Z,9.75
2023-03-25T09:45:49.890Z,9.59
2023-03-25T09:48:36.722Z,9.63
2023-03-25T09:51:25.637Z,9.72
2023-03-25T09:54:34.052Z,9.49
2023-03-25T09:57:13.879Z,9.51
2023-03-25T09:59:49.181Z,9.61
2023-03-25T10:03:02.717Z,9.75
2023-03-25T10:06:12.290Z,9.98
2023-03-25T10:09:04.834Z,9.99
2023-03-25T10:12:11.601Z,10.12
2023-03-25T10:15:30.689Z,10.08
2023-03-25T10:18:49.886Z,10.35
2023-03-25T10:21:50.631Z,10.49
2023-03-25T10:24:34.531Z,10.79
2023-03-25T10:27:34.498Z,10.95
2023-03-25T10:30:27.277Z,11.58
2023-03-25T10:33:06.855Z,11.96
2023-03-25T10:35:43.178Z,12.35
2023-03-25T10:38:20.969Z,12.67
2023-03-25T10:41:37.423Z,12.76
2023-03-25T10:44:12.854Z,12.79
2023-03-25T10:46:52.262Z,12.97
2023-03-25T10:49:27.421Z,13.51
2023-03-25T10:51:57.655Z,13.67
2023-03-25T10:54:33.521Z,13.71
2023-03-25T10:57:08.122Z,13.49
2023-03-25T10:59:52.643Z,12.81
2023-03-25T11:02:26.087Z,13.09
2023-03-25T11:05:05.160Z,12.84
2023-03-25T11:07:50.773Z,12.82
2023-03-25T11:10:23.980Z,13.10
2023-03-25T11:12:54.695Z,13.01
2023-03-25T11:15:30.733Z,12.92
2023-03-25T11:18:24.855Z,12.87
2023-03-25T11:21:15.603Z,12.75
2023-03-25T11:23:52.447Z,12.69
2023-03-25T11:26:36.432Z,12.73
2023-03-25T11:29:19.650Z,12.73
2023-03-25T11:32:13.079Z,12.56
2023-03-25T11:34:43.740Z,12.71
2023-03-25T11:37:22.639Z,12.81
2023-03-25T11:39:56.048Z,13.51
2023-03-25T11:42:42.829Z,13.58
2023-03-25T11:45:39.243Z,13.60
2023-03-25T11:48:29.838Z,13.70
2023-03-25T11:51:03.074Z,13.48
2023-03-25T11:53:33.630Z,13.49
2023-03-25T11:56:11.850Z,13.47
2023-03-25T11:58:40.800Z,13.80
2023-03-25T12:01:46.124Z,13.63
2023-03-25T12:04:32.531Z,13.97
2023-03-25T12:07:15.400Z,14.53
2023-03-25T12:10:04.769Z,14.27
2023-03-25T12:14:06.652Z,14.77
2023-03-25T12:17:28.730Z,14.83
2023-03-25T12:20:39.776Z,15.13
2023-03-25T12:23:56.956Z,15.24
2023-03-25T12:27:16.590Z,14.89
2023-03-25T12:30:38.461Z,15.12
2023-03-25T12:33:48.685Z,15.69
2023-03-25T12:36:42.881Z,15.88
2023-03-25T12:40:11.385Z,16.40
2023-03-25T12:43:10.952Z,16.36
2023-03-25T12:46:15.792Z,15.54
2023-03-25T12:49:44.537Z,15.70
2023-03-25T12:52:33.657Z,15.59
2023-03-25T12:55:36.940Z,15.60
2023-03-25T12:58:56.330Z,15.89
2023-03-25T13:02:15.776Z,15.53
2023-03-25T13:06:02.223Z,15.36
2023-03-25T13:09:05.308Z,15.56
2023-03-25T13:11:59.655Z,15.29
2023-03-25T13:14:44.883Z,15.30
2023-03-25T13:17:32.047Z,15.28
2023-03-25T13:20:06.524Z,15.09
2023-03-25T13:22:44.990Z,14.65
2023-03-25T13:25:33.685Z,14.68
2023-03-25T13:28:10.334Z,14.64
2023-03-25T13:30:46.891Z,14.97
2023-03-25T13:33:25.620Z,14.92
2023-03-25T13:36:34.396Z,15.00
2023-03-25T13:39:24.748Z,14.80
2023-03-25T13:42:13.521Z,14.79
2023-03-25T13:44:47.086Z,14.75
2023-03-25T13:47:40.140Z,15.38
2023-03-25T13:50:32.084Z,15.16
2023-03-25T13:53:51.926Z,15.18
2023-03-25T13:57:25.976Z,15.17
2023-03-25T14:00:34.592Z,14.87
2023-03-25T14:04:13.374Z,15.06
2023-03-25T14:07:46.473Z,14.89
2023-03-25T14:11:18.415Z,14.73
2023-03-25T14:14:01.765Z,14.70
2023-03-25T14:16:43.150Z,14.55
2023-03-25T14:19:32.527Z,14.43
2023-03-25T14:22:06.561Z,14.18
2023-03-25T14:24:41.629Z,13.89
2023-03-25T14:27:34.903Z,13.44
2023-03-25T14:30:28.724Z,13.02
2023-03-25T14:32:56.995Z,13.38
2023-03-25T14:35:33.802Z,13.48
2023-03-25T14:38:09.908Z,13.69
2023-03-25T14:40:50.726Z,13.66
2023-03-25T14:43:47.744Z,14.11
2023-03-25T14:46:24.363Z,14.37
2023-03-25T14:49:23.026Z,14.82
2023-03-25T14:51:56.936Z,15.16
2023-03-25T14:54:34.753Z,15.13
2023-03-25T14:57:33.068Z,15.01
2023-03-25T15:00:13.893Z,15.02
2023-03-25T15:02:44.238Z,15.28
2023-03-25T15:05:24.694Z,15.37
2023-03-25T15:08:00.216Z,15.43
2023-03-25T15:10:38.219Z,16.08
2023-03-25T15:13:33.317Z,16.03
2023-03-25T15:16:38.323Z,16.16
2023-03-25T15:19:14.559Z,16.33
2023-03-25T15:22:01.168Z,16.57
2023-03-25T15:24:43.748Z,16.54
2023-03-25T15:28:05.095Z,16.24
2023-03-25T15:31:32.043Z,16.54
2023-03-25T15:35:00.298Z,16.48
2023-03-25T15:38:17.742Z,15.71
2023-03-25T15:42:04.210Z,15.80
2023-03-25T15:45:08.100Z,15.69
2023-03-25T15:48:27.494Z,15.85
2023-03-25T15:51:38.617Z,15.65
2023-03-25T15:54:44.251Z,15.43
2023-03-25T15:58:03.564Z,15.97
2023-03-25T16:00:44.960Z,15.70
2023-03-25T16:03:29.243Z,15.70
2023-03-25T16:06:05.843Z,16.36
2023-03-25T16:08:40.784Z,16.22
2023-03-25T16:11:35.626Z,15.72
2023-03-25T16:14:17.459Z,15.87
2023-03-25T16:17:00.095Z,15.27
2023-03-25T16:19:49.603Z,15.67
2023-03-25T16:22:28.935Z,15.75
2023-03-25T16:25:27.134Z,16.40
2023-03-25T16:28:01.565Z,15.66
2023-03-25T16:30:43.127Z,15.56
2023-03-25T16:33:10.686Z,15.55
2023-03-25T16:35:59.060Z,15.39
2023-03-25T16:38:27.697Z,15.41
2023-03-25T16:41:14.885Z,15.23
2023-03-25T16:43:43.471Z,15.13
2023-03-25T16:46:15.195Z,15.39
2023-03-25T16:48:53.563Z,15.59
2023-03-25T16:51:36.091Z,15.60
2023-03-25T16:54:22.198Z,15.51
2023-03-25T16:56:50.208Z,15.15
2023-03-25T16:59:36.799Z,15.41
2023-03-25T17:02:28.355Z,15.34
2023-03-25T17:05:19.026Z,15.22
2023-03-25T17:08:08.662Z,15.34
2023-03-25T17:10:55.278Z,15.45
2023-03-25T17:13:44.695Z,15.48
2023-03-25T17:16:13.198Z,15.18
2023-03-25T17:18:40.821Z,15.26
2023-03-25T17:21:20.020Z,15.11
2023-03-25T17:23:47.854Z,15.12
2023-03-25T17:26:21.165Z,15.04
2023-03-25T17:28:51.529Z,15.00
2023-03-25T17:31:34.701Z,14.83
2023-03-25T17:34:12.856Z,14.67
2023-03-25T17:36:47.138Z,14.44
2023-03-25T17:39:27.957Z,14.20
2023-03-25T17:42:06.777Z,14.26
2023-03-25T17:44:43.523Z,14.13
2023-03-25T17:47:19.127Z,14.07
2023-03-25T17:49:46.768Z,14.15
2023-03-25T17:52:14.149Z,14.00
2023-03-25T17:54:41.585Z,14.19
2023-03-25T17:57:19.765Z,14.09
2023-03-25T17:59:47.824Z,14.19
2023-03-25T18:02:17.425Z,14.15
2023-03-25T18:04:44.866Z,14.09
2023-03-25T18:07:12.467Z,14.05
2023-03-25T18:09:41.323Z,13.80
2023-03-25T18:12:10.383Z,13.65
2023-03-25T18:14:37.803Z,13.75
2023-03-25T18:17:05.303Z,13.63
2023-03-25T18:19:34.099Z,13.81
2023-03-25T18:22:10.005Z,13.71
2023-03-25T18:24:46.570Z,13.61
2023-03-25T18:27:14.696Z,13.51
2023-03-25T18:29:42.206Z,13.52
2023-03-25T18:32:09.808Z,13.47
2023-03-25T18:34:37.255Z,13.30
2023-03-25T18:37:04.730Z,13.31
2023-03-25T18:39:32.786Z,13.38
2023-03-25T18:42:00.310Z,13.38
2023-03-25T18:44:28.632Z,13.44
2023-03-25T18:46:56.405Z,13.53
2023-03-25T18:49:23.858Z,13.45
2023-03-25T18:51:51.469Z,13.43
2023-03-25T18:54:19.547Z,13.45
2023-03-25T18:56:47.441Z,13.51
2023-03-25T18:59:21.979Z,13.46
2023-03-25T19:01:49.827Z,13.44
2023-03-25T19:04:18.301Z,13.51
2023-03-25T19:06:45.732Z,13.39
2023-03-25T19:09:22.868Z,13.30
2023-03-25T19:11:51.296Z,13.15
2023-03-25T19:14:18.913Z,13.23
2023-03-25T19:16:57.252Z,13.14
2023-03-25T19:19:28.960Z,13.16
2023-03-25T19:21:56.414Z,13.24
2023-03-25T19:24:49.503Z,13.32
2023-03-25T19:27:28.633Z,13.25
2023-03-25T19:29:56.237Z,13.33
2023-03-25T19:32:23.838Z,13.25
2023-03-25T19:35:03.051Z,13.21
2023-03-25T19:37:35.376Z,13.21
2023-03-25T19:40:09.386Z,13.26
2023-03-25T19:42:38.677Z,13.19
2023-03-25T19:45:10.740Z,13.09
2023-03-25T19:47:42.219Z,13.08
2023-03-25T19:50:19.104Z,13.06
2023-03-25T19:52:49.944Z,13.02
2023-03-25T19:55:18.421Z,13.23
2023-03-25T19:57:47.528Z,13.00
2023-03-25T20:00:26.192Z,13.07
2023-03-25T20:03:02.226Z,13.08
2023-03-25T20:05:33.839Z,13.06
2023-03-25T20:08:01.781Z,13.01
2023-03-25T20:10:30.541Z,13.04
2023-03-25T20:13:00.268Z,13.09
2023-03-25T20:15:27.777Z,13.15
2023-03-25T20:17:56.213Z,13.17
2023-03-25T20:20:25.036Z,13.11
2023-03-25T20:22:53.261Z,13.12
2023-03-25T20:25:21.405Z,13.26
2023-03-25T20:27:48.999Z,13.10
2023-03-25T20:30:19.949Z,13.24
2023-03-25T20:32:48.793Z,13.14
2023-03-25T20:35:19.066Z,13.21
2023-03-25T20:37:49.149Z,13.04
2023-03-25T20:40:19.784Z,13.05
2023-03-25T20:42:49.660Z,13.06
2023-03-25T20:45:18.752Z,13.08
2023-03-25T20:47:46.510Z,13.15
2023-03-25T20:50:16.590Z,13.03
2023-03-25T20:52:44.982Z,13.00
2023-03-25T20:55:13.025Z,13.19
2023-03-25T20:57:41.493Z,13.11
2023-03-25T21:00:18.174Z,12.94
2023-03-25T21:02:46.310Z,13.14
2023-03-25T21:05:13.860Z,13.11
2023-03-25T21:07:41.773Z,12.89
2023-03-25T21:10:10.444Z,12.95
2023-03-25T21:12:44.006Z,12.94
2023-03-25T21:15:17.073Z,12.93
2023-03-25T21:17:44.573Z,12.90
2023-03-25T21:20:12.919Z,12.88
2023-03-25T21:22:43.879Z,12.88
2023-03-25T21:25:14.763Z,12.91
2023-03-25T21:27:45.452Z,12.92
2023-03-25T21:30:14.089Z,12.92
2023-03-25T21:32:41.919Z,12.91
2023-03-25T21:35:10.462Z,12.91
2023-03-25T21:37:39.272Z,12.84
2023-03-25T21:40:11.738Z,12.93
2023-03-25T21:42:41.725Z,12.77
2023-03-25T21:45:13.980Z,12.75
2023-03-25T21:47:43.347Z,12.66
2023-03-25T21:50:14.692Z,12.65
2023-03-25T21:52:47.085Z,12.62
2023-03-25T21:55:19.650Z,12.75
2023-03-25T21:57:51.932Z,12.58
2023-03-25T22:00:20.310Z,12.64
2023-03-25T22:02:48.439Z,12.72
2023-03-25T22:05:17.146Z,12.62
2023-03-25T22:07:45.129Z,12.66
2023-03-25T22:10:12.781Z,12.59
2023-03-25T22:12:40.506Z,12.53
2023-03-25T22:15:10.126Z,12.52
2023-03-25T22:17:37.672Z,12.41
2023-03-25T22:20:06.168Z,12.45
2023-03-25T22:22:33.633Z,12.42
2023-03-25T22:25:01.250Z,12.33
2023-03-25T22:27:28.730Z,12.32
2023-03-25T22:29:56.297Z,12.40
2023-03-25T22:32:27.282Z,12.31
2023-03-25T22:34:55.187Z,12.41
2023-03-25T22:37:22.566Z,12.33
2023-03-25T22:39:50.548Z,12.40
2023-03-25T22:42:18.062Z,12.41
2023-03-25T22:44:46.499Z,12.32
2023-03-25T22:47:13.951Z,12.38
2023-03-25T22:49:41.383Z,12.34
2023-03-25T22:52:08.869Z,12.33
2023-03-25T22:54:36.408Z,12.43
2023-03-25T22:57:04.231Z,12.37
2023-03-25T22:59:31.969Z,12.48
2023-03-25T23:01:59.466Z,12.49
2023-03-25T23:04:27.012Z,12.52
2023-03-25T23:07:06.849Z,12.61
2023-03-25T23:09:42.112Z,12.50
2023-03-25T23:12:20.776Z,12.63
2023-03-25T23:14:56.915Z,12.48
2023-03-25T23:17:26.658Z,12.55
2023-03-25T23:19:54.326Z,12.60
2023-03-25T23:22:22.367Z,12.59
2023-03-25T23:24:49.883Z,12.59
2023-03-25T23:27:17.708Z,12.48
2023-03-25T23:29:45.211Z,12.46
2023-03-25T23:32:12.691Z,12.48
2023-03-25T23:34:40.432Z,12.58
2023-03-25T23:37:09.340Z,12.60
2023-03-25T23:39:40.590Z,12.55
2023-03-25T23:42:09.053Z,12.64
2023-03-25T23:44:36.453Z,12.65
2023-03-25T23:47:04.893Z,12.61
2023-03-25T23:49:34.031Z,12.67
2023-03-25T23:52:01.547Z,12.73
2023-03-25T23:54:29.119Z,12.69
2023-03-25T23:56:56.623Z,12.61
2023-03-25T23:59:24.094Z,12.55
